Accueil
METAR-TAF:

METAR-TAF

Aéroports :

Aéroport international de Dubaï

Dubaï, Émirats arabes unis

latitude: 25-15-10N, longitude: 055-21-52E, altitude: 8 m

Observation

Le bulletin a été fait il y a 1 heure et 0 minutes, à 14:00 UTC
Vent 13 kt de ouest/nord-ouest
Température 32°C
Humidité 59%
Pression 1013 hPa
Visibilité 10 km ou plus
Quelques nuages à une hauteur de 4500 ft

METAR: OMDB 231400Z 29013KT 9999 FEW045 32/23 Q1013 NOSIG

Heure: 19:00 (15:00 UTC)

Prévision

Le bulletin a été fait il y a 4 heures et 1 minutes, à 10:59 UTC
Prévision valable du 23 à 12 UTC au 24 à 18 UTC
Vent 16 kt de ouest
Visibilité 10 km ou plus
Nuages épars à une hauteur de 3000 ft
Probabilité 40%
du 23 à 20 UTC au 24 à 04 UTC
Vent 5 kt de sud/sud-ouest
Evoluant progressivement
du 24 à 16 UTC au 24 à 18 UTC
Vent 6 kt de sud/sud-ouest

TAF: OMDB 231059Z 2312/2418 28016KT 9999 SCT030 PROB40 2320/2404 20005KT BECMG 2416/2418 20006KT

Observations et prévisions météorologiques de plus de 4000 aéroports (messages METAR et TAF).

Les stations disponibles sont représentées par des disques jaunes et rouges sur la carte.

Passer la souris dessus pour voir le nom de la station.

Cliquer dessus pour voir les observations et prévisions météorologiques.

Pour changer de carte: cliquez sur les boutons verts avec une croix noire pour zoomer, sur le bouton vert avec un tiret pour effectuer un zoom arrière, ou sur les flèches vertes pour les cartes adjacentes.


METAR-TAF: